sensor_id;sensor_type;location;lat;lon;timestamp;P1;durP1;ratioP1;P2;durP2;ratioP2
30892;SDS011;17595;50.884;4.346;2022-09-01T00:02:00;8.13;;;2.67;;
30892;SDS011;17595;50.884;4.346;2022-09-01T00:04:33;5.70;;;2.72;;
30892;SDS011;17595;50.884;4.346;2022-09-01T00:07:02;6.47;;;2.70;;
30892;SDS011;17595;50.884;4.346;2022-09-01T00:09:32;7.80;;;3.45;;
30892;SDS011;17595;50.884;4.346;2022-09-01T00:11:58;6.22;;;3.05;;
30892;SDS011;17595;50.884;4.346;2022-09-01T00:14:27;6.63;;;2.97;;
30892;SDS011;17595;50.884;4.346;2022-09-01T00:16:55;5.18;;;3.03;;
30892;SDS011;17595;50.884;4.346;2022-09-01T00:19:22;6.75;;;3.30;;
30892;SDS011;17595;50.884;4.346;2022-09-01T00:21:48;5.07;;;3.03;;
30892;SDS011;17595;50.884;4.346;2022-09-01T00:24:15;7.32;;;3.08;;
30892;SDS011;17595;50.884;4.346;2022-09-01T00:26:43;8.52;;;3.20;;
30892;SDS011;17595;50.884;4.346;2022-09-01T00:29:09;5.88;;;3.15;;
30892;SDS011;17595;50.884;4.346;2022-09-01T00:31:35;5.53;;;3.25;;
30892;SDS011;17595;50.884;4.346;2022-09-01T00:34:01;8.27;;;3.40;;
30892;SDS011;17595;50.884;4.346;2022-09-01T00:36:27;8.38;;;3.38;;
30892;SDS011;17595;50.884;4.346;2022-09-01T00:38:53;5.40;;;2.65;;
30892;SDS011;17595;50.884;4.346;2022-09-01T00:41:19;5.97;;;3.50;;
30892;SDS011;17595;50.884;4.346;2022-09-01T00:43:51;5.18;;;2.97;;
30892;SDS011;17595;50.884;4.346;2022-09-01T00:46:25;5.80;;;3.20;;
30892;SDS011;17595;50.884;4.346;2022-09-01T00:48:55;5.82;;;3.15;;
30892;SDS011;17595;50.884;4.346;2022-09-01T00:51:23;7.47;;;3.10;;
30892;SDS011;17595;50.884;4.346;2022-09-01T00:53:50;6.07;;;3.38;;
30892;SDS011;17595;50.884;4.346;2022-09-01T00:56:16;5.15;;;3.45;;
30892;SDS011;17595;50.884;4.346;2022-09-01T00:58:42;4.50;;;2.67;;
30892;SDS011;17595;50.884;4.346;2022-09-01T01:01:08;10.02;;;3.22;;
30892;SDS011;17595;50.884;4.346;2022-09-01T01:03:35;5.05;;;2.80;;
30892;SDS011;17595;50.884;4.346;2022-09-01T01:06:02;6.78;;;2.78;;
30892;SDS011;17595;50.884;4.346;2022-09-01T01:08:32;3.10;;;2.50;;
30892;SDS011;17595;50.884;4.346;2022-09-01T01:11:01;7.63;;;2.87;;
30892;SDS011;17595;50.884;4.346;2022-09-01T01:13:45;4.78;;;2.63;;
30892;SDS011;17595;50.884;4.346;2022-09-01T01:16:34;3.78;;;2.83;;
30892;SDS011;17595;50.884;4.346;2022-09-01T01:19:00;5.72;;;2.72;;
30892;SDS011;17595;50.884;4.346;2022-09-01T01:21:34;5.00;;;2.63;;
30892;SDS011;17595;50.884;4.346;2022-09-01T01:26:56;7.93;;;2.40;;
30892;SDS011;17595;50.884;4.346;2022-09-01T01:29:24;6.30;;;2.78;;
30892;SDS011;17595;50.884;4.346;2022-09-01T01:34:18;5.53;;;2.75;;
30892;SDS011;17595;50.884;4.346;2022-09-01T01:36:44;3.08;;;2.35;;
30892;SDS011;17595;50.884;4.346;2022-09-01T01:39:13;4.30;;;2.40;;
30892;SDS011;17595;50.884;4.346;2022-09-01T01:41:44;4.72;;;2.38;;
30892;SDS011;17595;50.884;4.346;2022-09-01T01:44:13;5.03;;;2.15;;
30892;SDS011;17595;50.884;4.346;2022-09-01T01:46:45;4.72;;;2.70;;
30892;SDS011;17595;50.884;4.346;2022-09-01T01:49:14;4.90;;;2.63;;
30892;SDS011;17595;50.884;4.346;2022-09-01T01:51:44;5.72;;;2.38;;
30892;SDS011;17595;50.884;4.346;2022-09-01T01:54:11;4.53;;;2.63;;
30892;SDS011;17595;50.884;4.346;2022-09-01T01:56:38;4.40;;;2.70;;
30892;SDS011;17595;50.884;4.346;2022-09-01T01:59:06;3.08;;;2.33;;
30892;SDS011;17595;50.884;4.346;2022-09-01T02:01:39;7.47;;;2.35;;
30892;SDS011;17595;50.884;4.346;2022-09-01T02:04:07;4.70;;;2.78;;
30892;SDS011;17595;50.884;4.346;2022-09-01T02:06:35;4.85;;;2.40;;
30892;SDS011;17595;50.884;4.346;2022-09-01T02:09:01;5.35;;;2.40;;
30892;SDS011;17595;50.884;4.346;2022-09-01T02:11:28;5.60;;;2.53;;
30892;SDS011;17595;50.884;4.346;2022-09-01T02:13:57;5.15;;;2.40;;
30892;SDS011;17595;50.884;4.346;2022-09-01T02:16:25;6.88;;;2.63;;
30892;SDS011;17595;50.884;4.346;2022-09-01T02:18:52;4.65;;;2.53;;
30892;SDS011;17595;50.884;4.346;2022-09-01T02:21:19;8.05;;;2.78;;
30892;SDS011;17595;50.884;4.346;2022-09-01T02:23:51;4.85;;;2.47;;
30892;SDS011;17595;50.884;4.346;2022-09-01T02:26:25;3.35;;;2.22;;
30892;SDS011;17595;50.884;4.346;2022-09-01T02:28:55;6.18;;;2.75;;
30892;SDS011;17595;50.884;4.346;2022-09-01T02:31:25;4.30;;;2.05;;
30892;SDS011;17595;50.884;4.346;2022-09-01T02:33:52;4.60;;;2.47;;
30892;SDS011;17595;50.884;4.346;2022-09-01T02:36:18;7.40;;;2.45;;
30892;SDS011;17595;50.884;4.346;2022-09-01T02:38:45;3.67;;;2.35;;
30892;SDS011;17595;50.884;4.346;2022-09-01T02:41:12;6.68;;;2.42;;
30892;SDS011;17595;50.884;4.346;2022-09-01T02:43:39;5.72;;;2.45;;
30892;SDS011;17595;50.884;4.346;2022-09-01T02:46:07;4.95;;;2.40;;
30892;SDS011;17595;50.884;4.346;2022-09-01T02:48:34;3.70;;;2.10;;
30892;SDS011;17595;50.884;4.346;2022-09-01T02:51:04;6.43;;;2.50;;
30892;SDS011;17595;50.884;4.346;2022-09-01T02:53:33;6.00;;;2.35;;
30892;SDS011;17595;50.884;4.346;2022-09-01T02:56:00;5.68;;;2.50;;
30892;SDS011;17595;50.884;4.346;2022-09-01T02:58:28;5.10;;;2.30;;
30892;SDS011;17595;50.884;4.346;2022-09-01T03:00:57;4.95;;;2.80;;
30892;SDS011;17595;50.884;4.346;2022-09-01T03:03:23;4.30;;;2.17;;
30892;SDS011;17595;50.884;4.346;2022-09-01T03:05:52;6.75;;;2.65;;
30892;SDS011;17595;50.884;4.346;2022-09-01T03:08:21;4.78;;;2.85;;
30892;SDS011;17595;50.884;4.346;2022-09-01T03:10:48;6.38;;;2.45;;
30892;SDS011;17595;50.884;4.346;2022-09-01T03:13:17;3.78;;;2.63;;
30892;SDS011;17595;50.884;4.346;2022-09-01T03:15:45;7.93;;;2.55;;
30892;SDS011;17595;50.884;4.346;2022-09-01T03:18:11;8.90;;;2.83;;
30892;SDS011;17595;50.884;4.346;2022-09-01T03:20:39;4.68;;;2.70;;
30892;SDS011;17595;50.884;4.346;2022-09-01T03:23:08;4.88;;;2.65;;
30892;SDS011;17595;50.884;4.346;2022-09-01T03:25:35;9.32;;;2.88;;
30892;SDS011;17595;50.884;4.346;2022-09-01T03:28:02;7.93;;;2.58;;
30892;SDS011;17595;50.884;4.346;2022-09-01T03:30:29;6.63;;;2.78;;
30892;SDS011;17595;50.884;4.346;2022-09-01T03:32:57;9.90;;;3.08;;
30892;SDS011;17595;50.884;4.346;2022-09-01T03:35:24;4.32;;;2.90;;
30892;SDS011;17595;50.884;4.346;2022-09-01T03:37:52;4.30;;;2.65;;
30892;SDS011;17595;50.884;4.346;2022-09-01T03:40:20;6.35;;;2.80;;
30892;SDS011;17595;50.884;4.346;2022-09-01T03:42:45;5.70;;;3.00;;
30892;SDS011;17595;50.884;4.346;2022-09-01T03:45:11;6.35;;;3.17;;
30892;SDS011;17595;50.884;4.346;2022-09-01T03:47:40;6.93;;;3.00;;
30892;SDS011;17595;50.884;4.346;2022-09-01T03:50:09;7.05;;;2.97;;
30892;SDS011;17595;50.884;4.346;2022-09-01T03:52:45;8.00;;;3.20;;
30892;SDS011;17595;50.884;4.346;2022-09-01T03:55:24;6.18;;;2.90;;
30892;SDS011;17595;50.884;4.346;2022-09-01T03:57:56;8.00;;;3.20;;
30892;SDS011;17595;50.884;4.346;2022-09-01T04:00:25;8.00;;;3.05;;
30892;SDS011;17595;50.884;4.346;2022-09-01T04:02:54;7.10;;;3.55;;
30892;SDS011;17595;50.884;4.346;2022-09-01T04:05:23;13.70;;;3.17;;
30892;SDS011;17595;50.884;4.346;2022-09-01T04:07:53;8.45;;;3.83;;
30892;SDS011;17595;50.884;4.346;2022-09-01T04:10:19;6.82;;;2.90;;
30892;SDS011;17595;50.884;4.346;2022-09-01T04:12:46;6.97;;;3.50;;
30892;SDS011;17595;50.884;4.346;2022-09-01T04:15:13;8.00;;;3.85;;
30892;SDS011;17595;50.884;4.346;2022-09-01T04:17:42;10.32;;;3.95;;
30892;SDS011;17595;50.884;4.346;2022-09-01T04:20:27;6.22;;;3.53;;
30892;SDS011;17595;50.884;4.346;2022-09-01T04:22:53;7.47;;;4.07;;
30892;SDS011;17595;50.884;4.346;2022-09-01T04:25:19;9.40;;;3.60;;
30892;SDS011;17595;50.884;4.346;2022-09-01T04:27:50;11.90;;;4.00;;
30892;SDS011;17595;50.884;4.346;2022-09-01T04:30:20;6.65;;;3.90;;
30892;SDS011;17595;50.884;4.346;2022-09-01T04:32:53;9.27;;;4.45;;
30892;SDS011;17595;50.884;4.346;2022-09-01T04:35:20;7.72;;;4.20;;
30892;SDS011;17595;50.884;4.346;2022-09-01T04:37:56;9.15;;;4.10;;
30892;SDS011;17595;50.884;4.346;2022-09-01T04:42:51;10.98;;;4.68;;
30892;SDS011;17595;50.884;4.346;2022-09-01T04:45:17;8.02;;;3.80;;
30892;SDS011;17595;50.884;4.346;2022-09-01T04:50:12;7.13;;;4.13;;
30892;SDS011;17595;50.884;4.346;2022-09-01T04:52:41;10.77;;;4.15;;
30892;SDS011;17595;50.884;4.346;2022-09-01T04:55:11;12.13;;;4.75;;
30892;SDS011;17595;50.884;4.346;2022-09-01T04:57:50;9.77;;;4.10;;
30892;SDS011;17595;50.884;4.346;2022-09-01T05:00:17;10.90;;;4.10;;
30892;SDS011;17595;50.884;4.346;2022-09-01T05:02:48;12.27;;;4.75;;
30892;SDS011;17595;50.884;4.346;2022-09-01T05:05:19;9.18;;;4.22;;
30892;SDS011;17595;50.884;4.346;2022-09-01T05:07:46;10.63;;;4.10;;
30892;SDS011;17595;50.884;4.346;2022-09-01T05:10:15;9.75;;;4.63;;
30892;SDS011;17595;50.884;4.346;2022-09-01T05:12:42;11.40;;;4.20;;
30892;SDS011;17595;50.884;4.346;2022-09-01T05:15:10;8.05;;;4.13;;
30892;SDS011;17595;50.884;4.346;2022-09-01T05:17:37;7.50;;;4.07;;
30892;SDS011;17595;50.884;4.346;2022-09-01T05:20:04;7.72;;;4.10;;
30892;SDS011;17595;50.884;4.346;2022-09-01T05:22:30;13.65;;;4.40;;
30892;SDS011;17595;50.884;4.346;2022-09-01T05:24:59;8.85;;;4.00;;
30892;SDS011;17595;50.884;4.346;2022-09-01T05:27:37;9.82;;;4.55;;
30892;SDS011;17595;50.884;4.346;2022-09-01T05:30:13;7.35;;;3.88;;
30892;SDS011;17595;50.884;4.346;2022-09-01T05:32:40;9.90;;;3.97;;
30892;SDS011;17595;50.884;4.346;2022-09-01T05:35:07;11.25;;;4.45;;
30892;SDS011;17595;50.884;4.346;2022-09-01T05:37:36;10.80;;;4.78;;
30892;SDS011;17595;50.884;4.346;2022-09-01T05:40:06;10.68;;;4.65;;
30892;SDS011;17595;50.884;4.346;2022-09-01T05:42:40;10.30;;;4.80;;
30892;SDS011;17595;50.884;4.346;2022-09-01T05:47:38;7.55;;;4.38;;
30892;SDS011;17595;50.884;4.346;2022-09-01T05:50:04;11.88;;;4.50;;
30892;SDS011;17595;50.884;4.346;2022-09-01T05:52:33;11.18;;;5.13;;
30892;SDS011;17595;50.884;4.346;2022-09-01T05:55:02;14.93;;;4.97;;
30892;SDS011;17595;50.884;4.346;2022-09-01T05:59:59;15.13;;;5.35;;
30892;SDS011;17595;50.884;4.346;2022-09-01T06:02:26;9.57;;;5.15;;
30892;SDS011;17595;50.884;4.346;2022-09-01T06:04:52;10.45;;;5.15;;
30892;SDS011;17595;50.884;4.346;2022-09-01T06:07:21;19.13;;;6.72;;
30892;SDS011;17595;50.884;4.346;2022-09-01T06:09:47;14.75;;;5.70;;
30892;SDS011;17595;50.884;4.346;2022-09-01T06:12:14;14.13;;;5.43;;
30892;SDS011;17595;50.884;4.346;2022-09-01T06:14:48;10.07;;;5.53;;
30892;SDS011;17595;50.884;4.346;2022-09-01T06:17:16;20.30;;;5.22;;
30892;SDS011;17595;50.884;4.346;2022-09-01T06:19:46;10.10;;;4.75;;
30892;SDS011;17595;50.884;4.346;2022-09-01T06:22:12;8.80;;;4.82;;
30892;SDS011;17595;50.884;4.346;2022-09-01T06:24:38;13.73;;;5.03;;
30892;SDS011;17595;50.884;4.346;2022-09-01T06:27:04;13.30;;;6.07;;
30892;SDS011;17595;50.884;4.346;2022-09-01T06:29:34;12.73;;;5.10;;
30892;SDS011;17595;50.884;4.346;2022-09-01T06:32:03;17.55;;;5.28;;
30892;SDS011;17595;50.884;4.346;2022-09-01T06:34:34;11.10;;;4.82;;
30892;SDS011;17595;50.884;4.346;2022-09-01T06:37:02;9.87;;;4.83;;
30892;SDS011;17595;50.884;4.346;2022-09-01T06:39:28;10.20;;;5.20;;
30892;SDS011;17595;50.884;4.346;2022-09-01T06:41:55;15.38;;;5.40;;
30892;SDS011;17595;50.884;4.346;2022-09-01T06:44:22;15.20;;;5.43;;
30892;SDS011;17595;50.884;4.346;2022-09-01T06:46:49;11.88;;;5.72;;
30892;SDS011;17595;50.884;4.346;2022-09-01T06:49:15;16.95;;;5.82;;
30892;SDS011;17595;50.884;4.346;2022-09-01T06:51:41;12.70;;;4.95;;
30892;SDS011;17595;50.884;4.346;2022-09-01T06:54:06;9.05;;;5.85;;
30892;SDS011;17595;50.884;4.346;2022-09-01T06:56:33;13.98;;;4.95;;
30892;SDS011;17595;50.884;4.346;2022-09-01T06:58:59;12.50;;;5.32;;
30892;SDS011;17595;50.884;4.346;2022-09-01T07:03:54;9.88;;;5.40;;
30892;SDS011;17595;50.884;4.346;2022-09-01T07:06:23;17.80;;;5.40;;
30892;SDS011;17595;50.884;4.346;2022-09-01T07:08:52;12.15;;;5.47;;
30892;SDS011;17595;50.884;4.346;2022-09-01T07:11:21;13.00;;;5.47;;
30892;SDS011;17595;50.884;4.346;2022-09-01T07:13:51;16.35;;;5.57;;
30892;SDS011;17595;50.884;4.346;2022-09-01T07:16:19;11.05;;;5.65;;
30892;SDS011;17595;50.884;4.346;2022-09-01T07:18:50;15.50;;;5.37;;
30892;SDS011;17595;50.884;4.346;2022-09-01T07:21:18;19.63;;;5.78;;
30892;SDS011;17595;50.884;4.346;2022-09-01T07:23:44;12.30;;;5.03;;
30892;SDS011;17595;50.884;4.346;2022-09-01T07:26:10;12.25;;;5.57;;
30892;SDS011;17595;50.884;4.346;2022-09-01T07:28:44;15.30;;;6.05;;
30892;SDS011;17595;50.884;4.346;2022-09-01T07:31:18;11.70;;;4.97;;
30892;SDS011;17595;50.884;4.346;2022-09-01T07:33:48;18.77;;;5.53;;
30892;SDS011;17595;50.884;4.346;2022-09-01T07:36:15;7.95;;;5.30;;
30892;SDS011;17595;50.884;4.346;2022-09-01T07:38:41;14.30;;;5.60;;
30892;SDS011;17595;50.884;4.346;2022-09-01T07:41:07;9.75;;;5.47;;
30892;SDS011;17595;50.884;4.346;2022-09-01T07:43:37;9.98;;;5.38;;
30892;SDS011;17595;50.884;4.346;2022-09-01T07:46:04;11.32;;;5.65;;
30892;SDS011;17595;50.884;4.346;2022-09-01T07:48:30;11.40;;;5.40;;
30892;SDS011;17595;50.884;4.346;2022-09-01T07:50:56;14.20;;;5.35;;
30892;SDS011;17595;50.884;4.346;2022-09-01T07:53:23;9.82;;;4.55;;
30892;SDS011;17595;50.884;4.346;2022-09-01T07:55:55;14.30;;;5.47;;
30892;SDS011;17595;50.884;4.346;2022-09-01T07:58:24;11.57;;;5.00;;
30892;SDS011;17595;50.884;4.346;2022-09-01T08:00:51;12.75;;;5.53;;
30892;SDS011;17595;50.884;4.346;2022-09-01T08:03:19;13.40;;;5.20;;
30892;SDS011;17595;50.884;4.346;2022-09-01T08:05:45;16.90;;;4.63;;
30892;SDS011;17595;50.884;4.346;2022-09-01T08:08:13;12.00;;;5.47;;
30892;SDS011;17595;50.884;4.346;2022-09-01T08:10:42;15.98;;;5.07;;
30892;SDS011;17595;50.884;4.346;2022-09-01T08:13:09;12.75;;;4.57;;
30892;SDS011;17595;50.884;4.346;2022-09-01T08:15:36;11.90;;;4.85;;
30892;SDS011;17595;50.884;4.346;2022-09-01T08:18:03;14.55;;;4.80;;
30892;SDS011;17595;50.884;4.346;2022-09-01T08:20:29;19.35;;;5.15;;
30892;SDS011;17595;50.884;4.346;2022-09-01T08:25:24;9.77;;;4.07;;
30892;SDS011;17595;50.884;4.346;2022-09-01T08:27:50;11.32;;;4.50;;
30892;SDS011;17595;50.884;4.346;2022-09-01T08:30:16;12.32;;;4.55;;
30892;SDS011;17595;50.884;4.346;2022-09-01T08:32:42;13.98;;;4.22;;
30892;SDS011;17595;50.884;4.346;2022-09-01T08:35:09;6.07;;;3.88;;
30892;SDS011;17595;50.884;4.346;2022-09-01T08:37:36;7.57;;;3.40;;
30892;SDS011;17595;50.884;4.346;2022-09-01T08:40:06;10.77;;;3.75;;
30892;SDS011;17595;50.884;4.346;2022-09-01T08:47:37;8.15;;;3.10;;
30892;SDS011;17595;50.884;4.346;2022-09-01T08:50:03;6.55;;;3.15;;
30892;SDS011;17595;50.884;4.346;2022-09-01T08:52:34;7.63;;;3.40;;
30892;SDS011;17595;50.884;4.346;2022-09-01T08:55:16;6.43;;;3.20;;
30892;SDS011;17595;50.884;4.346;2022-09-01T08:57:44;5.72;;;2.72;;
30892;SDS011;17595;50.884;4.346;2022-09-01T09:00:13;7.40;;;3.22;;
30892;SDS011;17595;50.884;4.346;2022-09-01T09:17:13;5.28;;;2.50;;
30892;SDS011;17595;50.884;4.346;2022-09-01T09:19:43;5.00;;;2.53;;
30892;SDS011;17595;50.884;4.346;2022-09-01T09:22:14;7.85;;;2.63;;
30892;SDS011;17595;50.884;4.346;2022-09-01T09:24:43;10.48;;;3.05;;
30892;SDS011;17595;50.884;4.346;2022-09-01T09:27:33;4.00;;;2.03;;
30892;SDS011;17595;50.884;4.346;2022-09-01T09:30:07;5.35;;;2.85;;
30892;SDS011;17595;50.884;4.346;2022-09-01T09:32:47;5.22;;;2.60;;
30892;SDS011;17595;50.884;4.346;2022-09-01T09:37:55;6.45;;;2.72;;
30892;SDS011;17595;50.884;4.346;2022-09-01T09:41:06;7.00;;;2.60;;
30892;SDS011;17595;50.884;4.346;2022-09-01T09:43:45;3.78;;;2.28;;
30892;SDS011;17595;50.884;4.346;2022-09-01T09:46:27;4.40;;;2.17;;
30892;SDS011;17595;50.884;4.346;2022-09-01T09:51:45;7.22;;;2.70;;
30892;SDS011;17595;50.884;4.346;2022-09-01T09:54:16;4.35;;;2.30;;
30892;SDS011;17595;50.884;4.346;2022-09-01T09:56:45;4.53;;;2.50;;
30892;SDS011;17595;50.884;4.346;2022-09-01T09:59:47;16.98;;;3.42;;
30892;SDS011;17595;50.884;4.346;2022-09-01T10:02:14;2.58;;;2.30;;
30892;SDS011;17595;50.884;4.346;2022-09-01T10:04:57;8.55;;;2.38;;
30892;SDS011;17595;50.884;4.346;2022-09-01T10:09:54;4.73;;;1.70;;
30892;SDS011;17595;50.884;4.346;2022-09-01T10:12:24;11.27;;;2.13;;
30892;SDS011;17595;50.884;4.346;2022-09-01T10:14:56;4.13;;;2.08;;
30892;SDS011;17595;50.884;4.346;2022-09-01T10:17:44;9.55;;;2.00;;
30892;SDS011;17595;50.884;4.346;2022-09-01T10:20:23;8.75;;;1.98;;
30892;SDS011;17595;50.884;4.346;2022-09-01T10:22:50;2.53;;;1.40;;
30892;SDS011;17595;50.884;4.346;2022-09-01T10:25:18;2.65;;;1.65;;
30892;SDS011;17595;50.884;4.346;2022-09-01T10:27:47;4.32;;;1.70;;
30892;SDS011;17595;50.884;4.346;2022-09-01T10:30:20;1.95;;;1.20;;
30892;SDS011;17595;50.884;4.346;2022-09-01T10:35:26;3.40;;;1.80;;
30892;SDS011;17595;50.884;4.346;2022-09-01T10:37:57;5.57;;;1.58;;
30892;SDS011;17595;50.884;4.346;2022-09-01T10:42:54;2.72;;;1.42;;
30892;SDS011;17595;50.884;4.346;2022-09-01T10:48:16;2.00;;;1.33;;
30892;SDS011;17595;50.884;4.346;2022-09-01T10:50:44;2.90;;;1.35;;
30892;SDS011;17595;50.884;4.346;2022-09-01T10:56:08;3.88;;;1.52;;
30892;SDS011;17595;50.884;4.346;2022-09-01T10:59:03;2.10;;;1.38;;
30892;SDS011;17595;50.884;4.346;2022-09-01T11:04:08;1.88;;;1.40;;
30892;SDS011;17595;50.884;4.346;2022-09-01T11:09:22;2.72;;;1.63;;
30892;SDS011;17595;50.884;4.346;2022-09-01T11:11:50;5.45;;;1.60;;
30892;SDS011;17595;50.884;4.346;2022-09-01T11:17:24;3.85;;;1.05;;
30892;SDS011;17595;50.884;4.346;2022-09-01T11:30:40;3.50;;;1.70;;
30892;SDS011;17595;50.884;4.346;2022-09-01T11:38:57;5.75;;;1.83;;
30892;SDS011;17595;50.884;4.346;2022-09-01T11:44:21;7.68;;;1.88;;
30892;SDS011;17595;50.884;4.346;2022-09-01T11:46:48;5.25;;;1.77;;
30892;SDS011;17595;50.884;4.346;2022-09-01T11:49:25;3.03;;;1.80;;
30892;SDS011;17595;50.884;4.346;2022-09-01T11:51:56;5.50;;;1.90;;
30892;SDS011;17595;50.884;4.346;2022-09-01T11:54:24;3.03;;;1.50;;
30892;SDS011;17595;50.884;4.346;2022-09-01T11:56:50;5.10;;;1.70;;
30892;SDS011;17595;50.884;4.346;2022-09-01T11:59:29;3.35;;;2.00;;
30892;SDS011;17595;50.884;4.346;2022-09-01T12:01:59;4.20;;;1.77;;
30892;SDS011;17595;50.884;4.346;2022-09-01T12:04:29;9.80;;;1.85;;
30892;SDS011;17595;50.884;4.346;2022-09-01T12:09:42;5.70;;;2.17;;
30892;SDS011;17595;50.884;4.346;2022-09-01T12:12:30;6.68;;;1.85;;
30892;SDS011;17595;50.884;4.346;2022-09-01T12:15:03;6.95;;;2.00;;
30892;SDS011;17595;50.884;4.346;2022-09-01T12:17:33;3.13;;;1.65;;
30892;SDS011;17595;50.884;4.346;2022-09-01T12:22:56;5.70;;;2.70;;
30892;SDS011;17595;50.884;4.346;2022-09-01T12:25:25;4.05;;;1.65;;
30892;SDS011;17595;50.884;4.346;2022-09-01T12:27:55;2.42;;;1.75;;
30892;SDS011;17595;50.884;4.346;2022-09-01T12:30:24;5.22;;;1.90;;
30892;SDS011;17595;50.884;4.346;2022-09-01T12:32:50;4.45;;;2.00;;
30892;SDS011;17595;50.884;4.346;2022-09-01T12:35:22;2.75;;;1.60;;
30892;SDS011;17595;50.884;4.346;2022-09-01T12:37:50;2.92;;;1.70;;
30892;SDS011;17595;50.884;4.346;2022-09-01T12:40:24;3.78;;;1.50;;
30892;SDS011;17595;50.884;4.346;2022-09-01T12:42:57;3.13;;;1.38;;
30892;SDS011;17595;50.884;4.346;2022-09-01T12:48:53;3.90;;;1.70;;
30892;SDS011;17595;50.884;4.346;2022-09-01T12:50:57;3.97;;;1.80;;
30892;SDS011;17595;50.884;4.346;2022-09-01T12:53:25;1.75;;;1.60;;
30892;SDS011;17595;50.884;4.346;2022-09-01T12:55:58;6.32;;;1.85;;
30892;SDS011;17595;50.884;4.346;2022-09-01T12:58:27;4.43;;;1.83;;
30892;SDS011;17595;50.884;4.346;2022-09-01T13:01:06;5.28;;;1.80;;
30892;SDS011;17595;50.884;4.346;2022-09-01T13:03:33;6.70;;;1.95;;
30892;SDS011;17595;50.884;4.346;2022-09-01T13:06:00;3.00;;;1.70;;
30892;SDS011;17595;50.884;4.346;2022-09-01T13:08:28;2.95;;;2.00;;
30892;SDS011;17595;50.884;4.346;2022-09-01T13:13:27;5.38;;;1.83;;
30892;SDS011;17595;50.884;4.346;2022-09-01T13:15:54;2.65;;;1.60;;
30892;SDS011;17595;50.884;4.346;2022-09-01T13:18:26;4.65;;;1.67;;
30892;SDS011;17595;50.884;4.346;2022-09-01T13:20:53;2.22;;;1.92;;
30892;SDS011;17595;50.884;4.346;2022-09-01T13:23:20;2.75;;;2.00;;
30892;SDS011;17595;50.884;4.346;2022-09-01T13:25:46;2.88;;;1.58;;
30892;SDS011;17595;50.884;4.346;2022-09-01T13:28:12;5.97;;;1.67;;
30892;SDS011;17595;50.884;4.346;2022-09-01T13:30:38;3.92;;;1.80;;
30892;SDS011;17595;50.884;4.346;2022-09-01T13:33:05;4.55;;;1.58;;
30892;SDS011;17595;50.884;4.346;2022-09-01T13:35:31;3.80;;;1.65;;
30892;SDS011;17595;50.884;4.346;2022-09-01T13:37:56;2.53;;;1.70;;
30892;SDS011;17595;50.884;4.346;2022-09-01T13:40:22;3.90;;;1.92;;
30892;SDS011;17595;50.884;4.346;2022-09-01T13:42:49;1.48;;;1.38;;
30892;SDS011;17595;50.884;4.346;2022-09-01T13:45:19;2.22;;;1.83;;
30892;SDS011;17595;50.884;4.346;2022-09-01T13:47:47;2.22;;;1.52;;
30892;SDS011;17595;50.884;4.346;2022-09-01T13:50:15;2.90;;;1.70;;
30892;SDS011;17595;50.884;4.346;2022-09-01T13:55:14;3.15;;;1.50;;
30892;SDS011;17595;50.884;4.346;2022-09-01T14:00:09;3.10;;;1.70;;
30892;SDS011;17595;50.884;4.346;2022-09-01T14:02:38;2.55;;;1.40;;
30892;SDS011;17595;50.884;4.346;2022-09-01T14:05:05;3.83;;;1.60;;
30892;SDS011;17595;50.884;4.346;2022-09-01T14:07:31;4.25;;;1.52;;
30892;SDS011;17595;50.884;4.346;2022-09-01T14:09:56;1.90;;;1.38;;
30892;SDS011;17595;50.884;4.346;2022-09-01T14:12:22;2.97;;;1.70;;
30892;SDS011;17595;50.884;4.346;2022-09-01T14:14:48;3.42;;;2.42;;
30892;SDS011;17595;50.884;4.346;2022-09-01T14:17:14;4.15;;;1.73;;
30892;SDS011;17595;50.884;4.346;2022-09-01T14:19:39;3.55;;;1.70;;
30892;SDS011;17595;50.884;4.346;2022-09-01T14:22:06;4.57;;;1.52;;
30892;SDS011;17595;50.884;4.346;2022-09-01T14:24:35;6.43;;;1.55;;
30892;SDS011;17595;50.884;4.346;2022-09-01T14:27:02;2.13;;;1.88;;
30892;SDS011;17595;50.884;4.346;2022-09-01T14:29:28;2.08;;;1.52;;
30892;SDS011;17595;50.884;4.346;2022-09-01T14:31:54;2.60;;;1.73;;
30892;SDS011;17595;50.884;4.346;2022-09-01T14:34:21;3.33;;;1.63;;
30892;SDS011;17595;50.884;4.346;2022-09-01T14:36:49;3.55;;;1.70;;
30892;SDS011;17595;50.884;4.346;2022-09-01T14:39:16;2.90;;;1.70;;
30892;SDS011;17595;50.884;4.346;2022-09-01T14:41:41;2.35;;;1.50;;
30892;SDS011;17595;50.884;4.346;2022-09-01T14:44:07;4.97;;;1.80;;
30892;SDS011;17595;50.884;4.346;2022-09-01T14:46:32;2.05;;;1.50;;
30892;SDS011;17595;50.884;4.346;2022-09-01T14:48:59;2.70;;;1.70;;
30892;SDS011;17595;50.884;4.346;2022-09-01T14:51:26;1.67;;;1.40;;
30892;SDS011;17595;50.884;4.346;2022-09-01T14:53:54;1.67;;;1.20;;
30892;SDS011;17595;50.884;4.346;2022-09-01T14:56:20;2.75;;;1.77;;
30892;SDS011;17595;50.884;4.346;2022-09-01T14:58:47;2.15;;;1.50;;
30892;SDS011;17595;50.884;4.346;2022-09-01T15:01:17;2.97;;;1.55;;
30892;SDS011;17595;50.884;4.346;2022-09-01T15:03:45;2.35;;;1.30;;
30892;SDS011;17595;50.884;4.346;2022-09-01T15:06:12;5.55;;;1.58;;
30892;SDS011;17595;50.884;4.346;2022-09-01T15:08:39;4.18;;;1.40;;
30892;SDS011;17595;50.884;4.346;2022-09-01T15:11:13;2.35;;;1.52;;
30892;SDS011;17595;50.884;4.346;2022-09-01T15:13:41;3.65;;;1.77;;
30892;SDS011;17595;50.884;4.346;2022-09-01T15:16:15;1.48;;;1.30;;
30892;SDS011;17595;50.884;4.346;2022-09-01T15:18:43;1.80;;;1.40;;
30892;SDS011;17595;50.884;4.346;2022-09-01T15:21:19;3.72;;;2.10;;
30892;SDS011;17595;50.884;4.346;2022-09-01T15:23:46;2.28;;;1.60;;
30892;SDS011;17595;50.884;4.346;2022-09-01T15:26:13;3.72;;;2.05;;
30892;SDS011;17595;50.884;4.346;2022-09-01T15:28:41;3.92;;;1.50;;
30892;SDS011;17595;50.884;4.346;2022-09-01T15:31:07;4.03;;;1.60;;
30892;SDS011;17595;50.884;4.346;2022-09-01T15:33:41;5.88;;;1.23;;
30892;SDS011;17595;50.884;4.346;2022-09-01T15:36:11;2.92;;;1.33;;
30892;SDS011;17595;50.884;4.346;2022-09-01T15:38:40;3.83;;;1.27;;
30892;SDS011;17595;50.884;4.346;2022-09-01T15:41:06;2.33;;;1.30;;
30892;SDS011;17595;50.884;4.346;2022-09-01T15:43:32;4.85;;;1.30;;
30892;SDS011;17595;50.884;4.346;2022-09-01T15:45:58;2.22;;;1.33;;
30892;SDS011;17595;50.884;4.346;2022-09-01T15:48:26;2.75;;;1.30;;
30892;SDS011;17595;50.884;4.346;2022-09-01T15:50:52;4.50;;;1.17;;
30892;SDS011;17595;50.884;4.346;2022-09-01T15:53:30;1.20;;;1.10;;
30892;SDS011;17595;50.884;4.346;2022-09-01T15:55:56;1.52;;;1.10;;
30892;SDS011;17595;50.884;4.346;2022-09-01T15:58:23;3.17;;;1.05;;
30892;SDS011;17595;50.884;4.346;2022-09-01T16:00:49;1.25;;;1.15;;
30892;SDS011;17595;50.884;4.346;2022-09-01T16:03:15;3.47;;;1.13;;
30892;SDS011;17595;50.884;4.346;2022-09-01T16:05:41;4.13;;;1.42;;
30892;SDS011;17595;50.884;4.346;2022-09-01T16:08:07;2.65;;;1.40;;
30892;SDS011;17595;50.884;4.346;2022-09-01T16:10:34;5.97;;;1.08;;
30892;SDS011;17595;50.884;4.346;2022-09-01T16:13:02;3.95;;;1.48;;
30892;SDS011;17595;50.884;4.346;2022-09-01T16:15:28;2.92;;;1.60;;
30892;SDS011;17595;50.884;4.346;2022-09-01T16:20:27;2.85;;;1.70;;
30892;SDS011;17595;50.884;4.346;2022-09-01T16:23:22;4.13;;;1.67;;
30892;SDS011;17595;50.884;4.346;2022-09-01T16:25:57;2.15;;;1.33;;
30892;SDS011;17595;50.884;4.346;2022-09-01T16:28:32;3.58;;;1.70;;
30892;SDS011;17595;50.884;4.346;2022-09-01T16:31:12;3.15;;;2.20;;
30892;SDS011;17595;50.884;4.346;2022-09-01T16:33:47;5.72;;;1.60;;
30892;SDS011;17595;50.884;4.346;2022-09-01T16:38:53;1.90;;;1.00;;
30892;SDS011;17595;50.884;4.346;2022-09-01T16:41:34;1.20;;;1.10;;
30892;SDS011;17595;50.884;4.346;2022-09-01T16:52:28;4.72;;;1.20;;
30892;SDS011;17595;50.884;4.346;2022-09-01T17:00:33;3.17;;;1.42;;